createdAt,value
2023-02-01T00:00:11.082Z,25.20
2023-02-01T00:03:14.080Z,26.30
2023-02-01T00:06:15.832Z,27.30
2023-02-01T00:09:17.469Z,26.30
2023-02-01T00:12:19.064Z,24.40
2023-02-01T00:15:21.757Z,24.00
2023-02-01T00:18:23.419Z,24.00
2023-02-01T00:21:25.565Z,25.40
2023-02-01T00:24:27.342Z,23.70
2023-02-01T00:27:29.206Z,25.20
2023-02-01T00:30:30.961Z,25.00
2023-02-01T00:33:33.845Z,24.30
2023-02-01T00:36:36.018Z,24.20
2023-02-01T00:39:37.726Z,25.70
2023-02-01T00:42:39.384Z,24.40
2023-02-01T00:45:41.606Z,23.50
2023-02-01T00:48:43.757Z,23.50
2023-02-01T00:51:45.458Z,24.80
2023-02-01T00:54:47.299Z,25.80
2023-02-01T00:57:48.913Z,24.10
2023-02-01T01:01:01.991Z,23.10
2023-02-01T01:04:04.597Z,21.30
2023-02-01T01:07:06.329Z,24.50
2023-02-01T01:10:08.707Z,25.80
2023-02-01T01:13:10.430Z,24.50
2023-02-01T01:16:13.449Z,27.60
2023-02-01T01:19:15.508Z,25.70
2023-02-01T01:22:17.193Z,26.10
2023-02-01T01:25:19.051Z,26.90
2023-02-01T01:28:20.915Z,26.60
2023-02-01T01:31:22.807Z,26.30
2023-02-01T01:34:24.510Z,27.20
2023-02-01T01:37:26.184Z,25.40
2023-02-01T01:40:29.596Z,20.50
2023-02-01T01:43:56.758Z,23.90
2023-02-01T01:47:00.176Z,22.20
2023-02-01T01:50:04.593Z,25.70
2023-02-01T01:53:08.905Z,24.50
2023-02-01T01:56:11.250Z,25.90
2023-02-01T01:59:13.964Z,25.10
2023-02-01T02:02:16.734Z,19.60
2023-02-01T02:05:19.125Z,21.50
2023-02-01T02:08:21.810Z,24.00
2023-02-01T02:11:23.583Z,25.00
2023-02-01T02:14:26.151Z,26.50
2023-02-01T02:17:52.490Z,23.40
2023-02-01T02:21:12.887Z,23.60
2023-02-01T02:24:23.492Z,21.70
2023-02-01T02:27:31.159Z,21.80
2023-02-01T02:30:42.477Z,23.10
2023-02-01T02:33:57.119Z,24.40
2023-02-01T02:37:16.496Z,19.50
2023-02-01T02:40:23.117Z,22.90
2023-02-01T02:44:03.532Z,23.50
2023-02-01T02:47:28.663Z,24.80
2023-02-01T02:51:04.395Z,28.80
2023-02-01T02:54:35.655Z,26.50
2023-02-01T02:57:58.641Z,24.70
2023-02-01T03:01:19.347Z,26.20
2023-02-01T03:04:22.206Z,29.20
2023-02-01T03:07:46.742Z,22.80
2023-02-01T03:10:53.270Z,22.90
2023-02-01T03:13:58.499Z,22.40
2023-02-01T03:17:07.753Z,22.90
2023-02-01T03:20:11.921Z,26.40
2023-02-01T03:23:16.499Z,25.80
2023-02-01T03:26:20.053Z,26.10
2023-02-01T03:29:48.188Z,26.40
2023-02-01T03:33:01.384Z,25.50
2023-02-01T03:36:25.602Z,23.00
2023-02-01T03:39:40.062Z,25.40
2023-02-01T03:42:45.307Z,26.20
2023-02-01T03:45:51.391Z,23.50
2023-02-01T03:48:54.051Z,25.80
2023-02-01T03:51:58.735Z,25.60
2023-02-01T03:55:01.010Z,24.50
2023-02-01T03:58:07.912Z,27.10
2023-02-01T04:01:09.857Z,24.90
2023-02-01T04:04:20.943Z,25.70
2023-02-01T04:07:25.277Z,26.60
2023-02-01T04:10:27.757Z,26.10
2023-02-01T04:13:29.445Z,23.80
2023-02-01T04:16:34.419Z,26.50
2023-02-01T04:19:36.195Z,22.80
2023-02-01T04:22:38.167Z,26.20
2023-02-01T04:25:39.826Z,25.00
2023-02-01T04:28:41.473Z,24.20
2023-02-01T04:31:43.245Z,29.20
2023-02-01T04:34:45.056Z,26.70
2023-02-01T04:37:46.925Z,26.70
2023-02-01T04:40:49.703Z,27.00
2023-02-01T04:43:53.208Z,24.80
2023-02-01T04:46:54.852Z,24.00
2023-02-01T04:49:56.631Z,20.50
2023-02-01T04:52:58.302Z,24.60
2023-02-01T04:55:59.954Z,24.60
2023-02-01T04:59:03.485Z,22.80
2023-02-01T05:02:05.161Z,28.00
2023-02-01T05:05:07.192Z,26.60
2023-02-01T05:08:08.948Z,24.70
2023-02-01T05:11:33.444Z,23.90
2023-02-01T05:14:35.065Z,21.60
2023-02-01T05:17:36.756Z,24.00
2023-02-01T05:20:38.425Z,22.20
2023-02-01T05:23:58.573Z,21.20
2023-02-01T05:27:00.249Z,22.10
2023-02-01T05:30:03.275Z,23.80
2023-02-01T05:33:05.224Z,22.60
2023-02-01T05:36:07.091Z,24.50
2023-02-01T05:39:08.714Z,23.50
2023-02-01T05:42:10.713Z,24.50
2023-02-01T05:45:12.631Z,23.20
2023-02-01T05:48:14.452Z,21.10
2023-02-01T05:51:16.244Z,20.80
2023-02-01T05:54:17.909Z,26.40
2023-02-01T05:57:19.586Z,24.80
2023-02-01T06:00:22.470Z,22.40
2023-02-01T06:03:24.232Z,23.10
2023-02-01T06:06:25.915Z,24.20
2023-02-01T06:09:29.436Z,20.40
2023-02-01T06:12:31.406Z,21.20
2023-02-01T06:15:34.577Z,21.40
2023-02-01T06:18:36.593Z,24.00
2023-02-01T06:21:38.347Z,23.80
2023-02-01T06:24:40.700Z,37.30
2023-02-01T06:27:42.368Z,32.10
2023-02-01T06:30:47.150Z,26.90
2023-02-01T06:33:50.005Z,23.70
2023-02-01T06:36:51.870Z,23.40
2023-02-01T06:39:53.513Z,27.80
2023-02-01T06:42:55.276Z,22.40
2023-02-01T06:46:02.342Z,24.20
2023-02-01T06:49:03.915Z,24.20
2023-02-01T06:52:05.783Z,27.90
2023-02-01T06:55:08.067Z,22.40
2023-02-01T06:58:09.817Z,20.60
2023-02-01T07:01:12.391Z,21.30
2023-02-01T07:04:14.125Z,24.30
2023-02-01T07:07:16.430Z,28.00
2023-02-01T07:10:18.300Z,26.10
2023-02-01T07:13:20.262Z,26.50
2023-02-01T07:16:22.269Z,28.80
2023-02-01T07:19:24.095Z,27.20
2023-02-01T07:22:25.854Z,22.70
2023-02-01T07:25:27.513Z,26.50
2023-02-01T07:28:30.781Z,26.80
2023-02-01T07:31:32.429Z,25.50
2023-02-01T07:34:35.013Z,25.40
2023-02-01T07:37:36.825Z,24.60
2023-02-01T07:40:38.583Z,25.20
2023-02-01T07:43:40.269Z,21.70
2023-02-01T07:46:41.901Z,23.90
2023-02-01T07:49:43.553Z,26.40
2023-02-01T07:52:45.219Z,24.40
2023-02-01T07:55:47.100Z,24.80
2023-02-01T07:58:50.418Z,27.80
2023-02-01T08:01:52.157Z,30.00
2023-02-01T08:04:54.489Z,28.80
2023-02-01T08:07:56.189Z,31.20
2023-02-01T08:11:00.116Z,31.20
2023-02-01T08:14:01.845Z,31.50
2023-02-01T08:17:03.484Z,30.90
2023-02-01T08:20:05.812Z,27.80
2023-02-01T08:23:09.937Z,31.10
2023-02-01T08:26:13.602Z,28.70
2023-02-01T08:29:15.357Z,27.80
2023-02-01T08:32:17.030Z,31.70
2023-02-01T08:35:18.692Z,29.00
2023-02-01T08:38:20.376Z,33.10
2023-02-01T08:41:24.575Z,29.60
2023-02-01T08:44:26.238Z,30.60
2023-02-01T08:47:27.927Z,30.40
2023-02-01T08:50:29.634Z,31.10
2023-02-01T08:53:31.554Z,33.60
2023-02-01T08:56:33.302Z,33.70
2023-02-01T08:59:34.962Z,34.20
2023-02-01T09:02:37.008Z,29.80
2023-02-01T09:05:49.029Z,30.90
2023-02-01T09:08:51.416Z,32.80
2023-02-01T09:11:53.075Z,29.30
2023-02-01T09:14:55.376Z,30.00
2023-02-01T09:17:57.049Z,29.40
2023-02-01T09:20:58.799Z,28.80
2023-02-01T09:24:00.575Z,28.10
2023-02-01T09:27:02.265Z,29.80
2023-02-01T09:30:05.875Z,32.30
2023-02-01T09:36:26.746Z,27.40
2023-02-01T09:39:31.086Z,27.40
2023-02-01T09:42:51.669Z,29.20
2023-02-01T09:46:14.741Z,30.60
2023-02-01T09:49:21.063Z,30.20
2023-02-01T09:52:29.499Z,30.40
2023-02-01T09:55:36.589Z,31.10
2023-02-01T09:58:42.476Z,31.10
2023-02-01T10:01:44.246Z,30.80
2023-02-01T10:04:46.187Z,33.10
2023-02-01T10:07:59.303Z,33.40
2023-02-01T10:11:49.457Z,33.60
2023-02-01T10:15:15.654Z,34.80
2023-02-01T10:18:36.431Z,39.10
2023-02-01T10:22:01.925Z,35.50
2023-02-01T10:25:24.935Z,34.00
2023-02-01T10:28:27.120Z,34.60
2023-02-01T10:31:34.785Z,35.70
2023-02-01T10:34:37.707Z,37.00
2023-02-01T10:37:42.320Z,38.10
2023-02-01T10:40:44.069Z,34.90
2023-02-01T10:43:48.659Z,37.20
2023-02-01T10:46:51.316Z,37.30
2023-02-01T10:50:10.312Z,38.10
2023-02-01T10:53:18.747Z,34.50
2023-02-01T10:56:29.075Z,34.90
2023-02-01T10:59:33.586Z,38.50
2023-02-01T11:02:36.588Z,33.60
2023-02-01T11:05:46.857Z,35.50
2023-02-01T11:08:51.196Z,36.60
2023-02-01T11:15:04.576Z,34.40
2023-02-01T11:18:17.909Z,34.70
2023-02-01T11:21:19.603Z,36.20
2023-02-01T11:24:23.921Z,36.40
2023-02-01T11:30:38.465Z,39.50
2023-02-01T11:33:48.998Z,39.10
2023-02-01T11:39:58.002Z,33.00
2023-02-01T11:43:38.408Z,33.70
2023-02-01T11:46:40.072Z,31.50
2023-02-01T11:49:41.782Z,35.10
2023-02-01T11:52:52.413Z,30.50
2023-02-01T11:56:29.749Z,34.30
2023-02-01T11:59:56.387Z,33.00
2023-02-01T12:03:24.783Z,32.40
2023-02-01T12:06:35.592Z,28.70
2023-02-01T12:09:53.032Z,34.30
2023-02-01T12:13:03.744Z,32.80
2023-02-01T12:16:11.334Z,32.90
2023-02-01T12:19:22.573Z,31.00
2023-02-01T12:22:50.705Z,36.00
2023-02-01T12:26:23.324Z,35.20
2023-02-01T12:29:53.004Z,34.00
2023-02-01T12:33:09.772Z,36.40
2023-02-01T12:39:33.746Z,35.10
2023-02-01T12:42:42.438Z,35.30
2023-02-01T12:45:48.147Z,35.60
2023-02-01T12:48:55.845Z,35.40
2023-02-01T12:52:05.474Z,33.30
2023-02-01T12:55:35.529Z,34.40
2023-02-01T12:58:42.502Z,39.10
2023-02-01T13:01:51.962Z,33.50
2023-02-01T13:05:02.818Z,32.10
2023-02-01T13:08:08.899Z,33.70
2023-02-01T13:11:19.200Z,32.20
2023-02-01T13:14:33.168Z,36.60
2023-02-01T13:17:35.015Z,36.00
2023-02-01T13:20:43.463Z,34.60
2023-02-01T13:23:47.937Z,32.30
2023-02-01T13:26:49.812Z,32.60
2023-02-01T13:30:17.040Z,35.60
2023-02-01T13:33:52.608Z,33.50
2023-02-01T13:37:26.999Z,37.20
2023-02-01T13:41:07.025Z,35.40
2023-02-01T13:44:25.760Z,34.00
2023-02-01T13:47:33.288Z,26.50
2023-02-01T13:50:38.651Z,34.80
2023-02-01T13:53:46.953Z,34.10
2023-02-01T13:56:48.647Z,32.50
2023-02-01T13:59:51.917Z,37.40
2023-02-01T14:03:09.830Z,37.50
2023-02-01T14:06:27.380Z,35.00
2023-02-01T14:09:35.250Z,33.20
2023-02-01T14:12:45.965Z,37.30
2023-02-01T14:16:03.026Z,37.90
2023-02-01T14:19:10.391Z,37.30
2023-02-01T14:22:21.148Z,38.20
2023-02-01T14:25:23.219Z,39.30
2023-02-01T14:28:28.895Z,38.00
2023-02-01T14:32:00.811Z,40.00
2023-02-01T14:35:04.067Z,37.10
2023-02-01T14:38:08.052Z,34.40
2023-02-01T14:41:23.569Z,35.20
2023-02-01T14:44:31.415Z,35.80
2023-02-01T14:47:34.239Z,34.50
2023-02-01T14:50:41.579Z,35.90
2023-02-01T14:53:44.604Z,38.70
2023-02-01T14:56:47.041Z,37.90
2023-02-01T14:59:50.385Z,37.40
2023-02-01T15:02:53.983Z,39.90
2023-02-01T15:05:58.013Z,39.10
2023-02-01T15:12:12.045Z,35.70
2023-02-01T15:15:13.725Z,37.40
2023-02-01T15:18:19.716Z,38.20
2023-02-01T15:21:29.807Z,34.90
2023-02-01T15:24:32.914Z,38.00
2023-02-01T15:27:34.716Z,39.50
2023-02-01T15:30:37.179Z,35.70
2023-02-01T15:33:38.887Z,36.90
2023-02-01T15:36:45.764Z,37.60
2023-02-01T15:40:10.393Z,39.50
2023-02-01T15:43:13.196Z,38.50
2023-02-01T15:46:18.082Z,41.00
2023-02-01T15:49:20.905Z,39.20
2023-02-01T15:52:28.903Z,38.70
2023-02-01T15:55:43.027Z,38.00
2023-02-01T15:58:51.686Z,39.90
2023-02-01T16:01:53.418Z,34.80
2023-02-01T16:04:55.592Z,37.40
2023-02-01T16:08:05.035Z,37.20
2023-02-01T16:11:10.095Z,36.30
2023-02-01T16:14:11.697Z,37.80
2023-02-01T16:17:13.349Z,38.80
2023-02-01T16:20:15.123Z,35.00
2023-02-01T16:23:16.843Z,37.00
2023-02-01T16:26:19.564Z,34.60
2023-02-01T16:29:22.739Z,35.30
2023-02-01T16:32:24.711Z,35.10
2023-02-01T16:35:28.773Z,36.90
2023-02-01T16:38:30.581Z,35.70
2023-02-01T16:41:32.304Z,36.20
2023-02-01T16:44:33.985Z,34.60
2023-02-01T16:47:38.698Z,35.20
2023-02-01T16:50:40.378Z,33.30
2023-02-01T16:53:53.846Z,35.40
2023-02-01T16:56:56.532Z,37.20
2023-02-01T16:59:59.416Z,35.10
2023-02-01T17:03:01.068Z,35.00
2023-02-01T17:06:02.970Z,33.20
2023-02-01T17:09:05.230Z,33.80
2023-02-01T17:12:07.164Z,36.10
2023-02-01T17:15:11.198Z,37.50
2023-02-01T17:18:16.447Z,34.80
2023-02-01T17:21:18.077Z,33.80
2023-02-01T17:24:25.909Z,35.00
2023-02-01T17:27:30.353Z,34.80
2023-02-01T17:30:32.396Z,35.30
2023-02-01T17:33:38.018Z,34.90
2023-02-01T17:36:42.655Z,33.40
2023-02-01T17:39:56.338Z,36.40
2023-02-01T17:42:58.121Z,34.50
2023-02-01T17:46:04.286Z,34.70
2023-02-01T17:49:06.014Z,37.90
2023-02-01T17:52:11.126Z,38.70
2023-02-01T17:55:22.755Z,37.90
2023-02-01T17:58:24.909Z,35.40
2023-02-01T18:01:27.374Z,35.30
2023-02-01T18:04:29.114Z,37.50
2023-02-01T18:07:30.815Z,35.20
2023-02-01T18:10:32.472Z,35.60
2023-02-01T18:13:34.147Z,34.50
2023-02-01T18:16:37.247Z,34.40
2023-02-01T18:19:39.424Z,36.20
2023-02-01T18:22:41.029Z,36.50
2023-02-01T18:25:42.703Z,37.10
2023-02-01T18:28:45.018Z,38.40
2023-02-01T18:31:49.604Z,36.40
2023-02-01T18:34:51.391Z,34.90
2023-02-01T18:37:54.726Z,33.30
2023-02-01T18:40:58.316Z,34.50
2023-02-01T18:43:59.972Z,34.70
2023-02-01T18:47:01.656Z,31.60
2023-02-01T18:50:03.507Z,37.30
2023-02-01T18:53:08.483Z,39.40
2023-02-01T18:56:13.198Z,38.80
2023-02-01T18:59:17.399Z,40.70
2023-02-01T19:02:19.575Z,39.00
2023-02-01T19:05:22.324Z,37.80
2023-02-01T19:08:25.906Z,35.70
2023-02-01T19:11:27.672Z,33.60
2023-02-01T19:14:29.479Z,32.70
2023-02-01T19:17:31.271Z,34.20
2023-02-01T19:20:33.574Z,33.60
2023-02-01T19:23:35.390Z,32.30
2023-02-01T19:26:37.143Z,31.10
2023-02-01T19:29:40.899Z,31.30
2023-02-01T19:32:42.687Z,31.50
2023-02-01T19:35:44.339Z,33.10
2023-02-01T19:38:46.648Z,35.20
2023-02-01T19:41:48.401Z,38.10
2023-02-01T19:44:50.150Z,39.30
2023-02-01T19:47:51.804Z,32.70
2023-02-01T19:50:55.569Z,29.50
2023-02-01T19:53:57.624Z,33.60
2023-02-01T19:56:59.388Z,32.20
2023-02-01T20:00:01.077Z,35.30
2023-02-01T20:03:05.022Z,39.30
2023-02-01T20:06:07.617Z,34.00
2023-02-01T20:09:09.345Z,32.30
2023-02-01T20:12:11.922Z,35.50
2023-02-01T20:15:13.626Z,34.70
2023-02-01T20:18:15.316Z,32.80
2023-02-01T20:21:18.492Z,33.60
2023-02-01T20:24:20.304Z,29.50
2023-02-01T20:27:23.039Z,32.60
2023-02-01T20:30:24.929Z,33.30
2023-02-01T20:33:27.651Z,36.50
2023-02-01T20:36:30.641Z,36.60
2023-02-01T20:39:32.305Z,34.00
2023-02-01T20:42:34.669Z,35.80
2023-02-01T20:45:40.592Z,34.30
2023-02-01T20:48:44.050Z,33.80
2023-02-01T20:51:45.749Z,35.80
2023-02-01T20:54:47.670Z,40.10
2023-02-01T20:57:49.406Z,36.00
2023-02-01T21:00:51.305Z,32.10
2023-02-01T21:03:53.002Z,32.30
2023-02-01T21:06:55.885Z,33.60
2023-02-01T21:09:57.630Z,32.70
2023-02-01T21:13:05.022Z,30.40
2023-02-01T21:16:08.688Z,30.00
2023-02-01T21:19:10.312Z,32.40
2023-02-01T21:22:13.503Z,30.80
2023-02-01T21:25:15.654Z,26.10
2023-02-01T21:28:17.471Z,29.60
2023-02-01T21:31:22.294Z,29.10
2023-02-01T21:34:24.612Z,28.00
2023-02-01T21:37:27.093Z,25.20
2023-02-01T21:40:28.772Z,28.80
2023-02-01T21:43:30.498Z,33.80
2023-02-01T21:46:32.727Z,37.90
2023-02-01T21:49:35.001Z,30.70
2023-02-01T21:52:39.093Z,28.30
2023-02-01T21:55:41.323Z,27.70
2023-02-01T21:58:43.168Z,32.30
2023-02-01T22:01:45.259Z,34.50
2023-02-01T22:04:49.133Z,38.90
2023-02-01T22:07:50.882Z,32.50
2023-02-01T22:10:53.116Z,31.00
2023-02-01T22:13:55.275Z,34.50
2023-02-01T22:16:57.177Z,39.80
2023-02-01T22:19:58.915Z,42.30
2023-02-01T22:23:00.607Z,39.40
2023-02-01T22:26:06.729Z,31.80
2023-02-01T22:29:09.514Z,28.50
2023-02-01T22:32:13.280Z,31.50
2023-02-01T22:35:15.036Z,26.40
2023-02-01T22:38:17.288Z,26.90
2023-02-01T22:41:19.949Z,25.10
2023-02-01T22:44:21.724Z,24.00
2023-02-01T22:47:23.446Z,23.40
2023-02-01T22:50:25.074Z,25.50
2023-02-01T22:53:27.744Z,31.00
2023-02-01T22:56:36.775Z,32.90
2023-02-01T22:59:38.471Z,31.20
2023-02-01T23:02:43.625Z,28.30
2023-02-01T23:05:45.302Z,29.80
2023-02-01T23:08:46.979Z,31.10
2023-02-01T23:11:49.129Z,32.00
2023-02-01T23:15:06.349Z,33.80
2023-02-01T23:18:07.990Z,33.40
2023-02-01T23:21:12.689Z,28.30
2023-02-01T23:24:14.378Z,28.40
2023-02-01T23:27:16.060Z,31.50
2023-02-01T23:30:17.813Z,30.00
2023-02-01T23:33:23.056Z,26.80
2023-02-01T23:36:26.053Z,27.80
2023-02-01T23:39:27.836Z,26.60
2023-02-01T23:42:29.447Z,25.10
2023-02-01T23:45:31.089Z,26.60
2023-02-01T23:48:32.848Z,27.50
2023-02-01T23:51:34.708Z,27.10
2023-02-01T23:54:36.342Z,25.30
2023-02-01T23:57:38.152Z,26.30
